createdAt,value
2022-10-11T00:00:37.634Z,56.78
2022-10-11T00:03:36.924Z,57.76
2022-10-11T00:06:07.665Z,59.82
2022-10-11T00:08:36.716Z,66.81
2022-10-11T00:11:10.237Z,66.00
2022-10-11T00:13:42.977Z,56.55
2022-10-11T00:16:14.657Z,55.62
2022-10-11T00:18:47.495Z,58.62
2022-10-11T00:21:16.998Z,64.23
2022-10-11T00:23:45.656Z,66.50
2022-10-11T00:26:18.065Z,60.72
2022-10-11T00:28:46.758Z,54.73
2022-10-11T00:31:16.816Z,56.87
2022-10-11T00:33:48.357Z,60.29
2022-10-11T00:36:19.061Z,63.67
2022-10-11T00:38:48.036Z,64.08
2022-10-11T00:41:17.695Z,57.82
2022-10-11T00:43:48.316Z,57.23
2022-10-11T00:46:20.046Z,58.06
2022-10-11T00:49:02.049Z,60.42
2022-10-11T00:51:52.755Z,70.05
2022-10-11T00:54:28.340Z,65.72
2022-10-11T00:57:06.075Z,58.92
2022-10-11T00:59:44.436Z,54.31
2022-10-11T01:02:24.667Z,56.49
2022-10-11T01:05:11.367Z,58.91
2022-10-11T01:07:44.532Z,59.37
2022-10-11T01:10:15.076Z,67.00
2022-10-11T01:13:09.879Z,66.71
2022-10-11T01:15:55.843Z,59.63
2022-10-11T01:19:31.296Z,55.17
2022-10-11T01:22:38.197Z,57.13
2022-10-11T01:25:52.276Z,59.76
2022-10-11T01:28:49.789Z,69.86
2022-10-11T01:31:21.596Z,62.95
2022-10-11T01:34:06.106Z,55.49
2022-10-11T01:37:29.637Z,55.48
2022-10-11T01:40:09.975Z,58.86
2022-10-11T01:42:42.278Z,60.57
2022-10-11T01:45:18.136Z,68.54
2022-10-11T01:47:47.058Z,66.42
2022-10-11T01:50:47.535Z,60.28
2022-10-11T01:53:55.396Z,55.38
2022-10-11T01:56:49.066Z,57.71
2022-10-11T01:59:34.606Z,60.26
2022-10-11T02:02:31.556Z,62.83
2022-10-11T02:05:00.146Z,69.91
2022-10-11T02:08:02.396Z,64.10
2022-10-11T02:10:44.716Z,56.52
2022-10-11T02:13:28.955Z,55.73
2022-10-11T02:16:03.137Z,58.63
2022-10-11T02:18:39.555Z,60.36
2022-10-11T02:21:12.999Z,68.62
2022-10-11T02:23:54.058Z,65.48
2022-10-11T02:26:26.737Z,57.52
2022-10-11T02:29:01.482Z,54.44
2022-10-11T02:31:33.955Z,56.53
2022-10-11T02:34:14.635Z,59.22
2022-10-11T02:36:54.976Z,66.26
2022-10-11T02:39:42.975Z,66.16
2022-10-11T02:42:21.045Z,61.67
2022-10-11T02:45:06.239Z,56.68
2022-10-11T02:47:35.526Z,56.21
2022-10-11T02:50:15.557Z,58.58
2022-10-11T02:52:44.330Z,60.71
2022-10-11T02:55:13.076Z,69.40
2022-10-11T02:57:42.240Z,68.60
2022-10-11T03:00:12.075Z,61.38
2022-10-11T03:02:40.666Z,55.71
2022-10-11T03:05:09.627Z,55.42
2022-10-11T03:07:38.267Z,57.59
2022-10-11T03:10:07.701Z,59.71
2022-10-11T03:12:36.486Z,68.11
2022-10-11T03:15:05.997Z,67.04
2022-10-11T03:17:37.191Z,60.68
2022-10-11T03:20:07.257Z,55.37
2022-10-11T03:22:36.175Z,55.34
2022-10-11T03:25:05.179Z,58.23
2022-10-11T03:27:34.557Z,60.87
2022-10-11T03:30:05.235Z,69.35
2022-10-11T03:32:33.942Z,66.95
2022-10-11T03:35:02.636Z,59.77
2022-10-11T03:37:31.446Z,55.56
2022-10-11T03:40:00.439Z,57.18
2022-10-11T03:42:29.716Z,58.66
2022-10-11T03:45:00.098Z,61.56
2022-10-11T03:47:28.919Z,69.81
2022-10-11T03:49:57.777Z,67.78
2022-10-11T03:52:26.537Z,62.80
2022-10-11T03:54:55.196Z,60.38
2022-10-11T03:57:24.316Z,57.86
2022-10-11T03:59:53.000Z,56.97
2022-10-11T04:02:21.836Z,59.32
2022-10-11T04:04:50.436Z,67.82
2022-10-11T04:07:19.218Z,66.66
2022-10-11T04:09:47.940Z,61.32
2022-10-11T04:12:16.695Z,55.75
2022-10-11T04:14:45.476Z,55.42
2022-10-11T04:17:14.257Z,58.07
2022-10-11T04:19:42.956Z,59.72
2022-10-11T04:35:23.849Z,73.44
2022-10-11T04:37:52.498Z,75.31
2022-10-11T04:40:21.259Z,68.61
2022-10-11T04:42:54.124Z,64.28
2022-10-11T04:45:23.078Z,60.88
2022-10-11T04:47:57.878Z,56.51
2022-10-11T04:50:47.618Z,55.80
2022-10-11T04:53:17.177Z,58.05
2022-10-11T04:56:08.315Z,61.35
2022-10-11T04:58:42.443Z,70.48
2022-10-11T05:01:12.518Z,67.18
2022-10-11T05:03:41.668Z,62.21
2022-10-11T05:06:10.874Z,57.32
2022-10-11T05:08:40.138Z,56.63
2022-10-11T05:11:15.827Z,61.15
2022-10-11T05:13:48.738Z,66.01
2022-10-11T05:16:20.066Z,63.51
2022-10-11T05:18:49.238Z,58.42
2022-10-11T05:21:22.958Z,59.06
2022-10-11T05:23:55.858Z,63.09
2022-10-11T05:26:27.919Z,66.61
2022-10-11T05:28:57.928Z,62.52
2022-10-11T05:31:26.923Z,57.63
2022-10-11T05:33:55.898Z,58.41
2022-10-11T05:36:24.627Z,62.10
2022-10-11T05:38:53.378Z,67.27
2022-10-11T05:41:22.249Z,62.79
2022-10-11T05:43:51.259Z,58.24
2022-10-11T05:46:20.258Z,56.02
2022-10-11T05:48:49.157Z,60.75
2022-10-11T05:51:17.938Z,65.13
2022-10-11T05:53:47.338Z,62.26
2022-10-11T05:56:22.239Z,56.96
2022-10-11T05:58:51.838Z,58.15
2022-10-11T06:01:28.458Z,60.97
2022-10-11T06:04:00.024Z,65.18
2022-10-11T06:06:29.059Z,62.34
2022-10-11T06:08:57.999Z,57.13
2022-10-11T06:11:29.438Z,55.86
2022-10-11T06:16:37.096Z,64.28
2022-10-11T06:19:06.298Z,65.27
2022-10-11T06:21:34.988Z,59.07
2022-10-11T06:24:04.189Z,54.48
2022-10-11T06:26:33.408Z,56.77
2022-10-11T06:29:02.101Z,59.09
2022-10-11T06:31:31.401Z,65.12
2022-10-11T06:34:00.473Z,64.31
2022-10-11T06:36:29.257Z,58.14
2022-10-11T06:38:57.737Z,54.30
2022-10-11T06:41:29.586Z,56.64
2022-10-11T06:43:58.386Z,59.86
2022-10-11T06:46:28.682Z,65.65
2022-10-11T06:48:57.707Z,64.42
2022-10-11T06:51:26.696Z,58.19
2022-10-11T06:53:59.578Z,54.34
2022-10-11T06:56:31.396Z,59.24
2022-10-11T06:59:00.537Z,60.24
2022-10-11T07:01:29.081Z,65.79
2022-10-11T07:04:00.309Z,62.60
2022-10-11T07:06:30.604Z,56.05
2022-10-11T07:09:01.449Z,57.50
2022-10-11T07:11:30.882Z,60.64
2022-10-11T07:14:04.653Z,63.84
2022-10-11T07:16:33.430Z,62.71
2022-10-11T07:19:04.145Z,56.83
2022-10-11T07:21:35.026Z,58.41
2022-10-11T07:24:04.409Z,61.66
2022-10-11T07:26:38.202Z,63.80
2022-10-11T07:29:11.038Z,59.94
2022-10-11T07:31:42.871Z,55.62
2022-10-11T07:34:12.072Z,57.93
2022-10-11T07:36:40.950Z,60.73
2022-10-11T07:39:09.951Z,64.07
2022-10-11T07:41:44.616Z,59.24
2022-10-11T07:44:15.187Z,55.00
2022-10-11T07:46:43.677Z,57.18
2022-10-11T07:49:12.271Z,58.92
2022-10-11T07:51:41.050Z,62.97
2022-10-11T07:54:09.650Z,60.02
2022-10-11T07:56:40.597Z,55.10
2022-10-11T07:59:11.787Z,55.62
2022-10-11T08:01:40.557Z,57.53
2022-10-11T08:04:09.307Z,59.70
2022-10-11T08:06:37.997Z,64.28
2022-10-11T08:09:06.867Z,61.09
2022-10-11T08:11:37.946Z,54.02
2022-10-11T08:14:09.465Z,53.82
2022-10-11T08:16:39.736Z,57.25
2022-10-11T08:19:08.728Z,59.75
2022-10-11T08:21:37.265Z,62.10
2022-10-11T08:24:07.246Z,62.50
2022-10-11T08:26:36.098Z,56.35
2022-10-11T08:29:05.601Z,54.94
2022-10-11T08:31:35.920Z,57.11
2022-10-11T08:34:04.702Z,60.06
2022-10-11T08:36:33.900Z,61.09
2022-10-11T08:39:02.369Z,63.71
2022-10-11T08:41:56.807Z,57.93
2022-10-11T08:45:11.541Z,54.86
2022-10-11T08:47:44.736Z,57.33
2022-10-11T08:50:23.990Z,59.18
2022-10-11T08:53:07.023Z,59.99
2022-10-11T08:55:51.753Z,61.60
2022-10-11T08:58:26.673Z,56.55
2022-10-11T09:00:57.944Z,55.06
2022-10-11T09:03:46.962Z,57.69
2022-10-11T09:06:34.023Z,58.52
2022-10-11T09:09:39.268Z,58.67
2022-10-11T09:12:19.527Z,60.10
2022-10-11T09:15:31.208Z,61.69
2022-10-11T09:18:43.926Z,62.11
2022-10-11T09:21:33.923Z,60.66
2022-10-11T09:24:46.326Z,54.34
2022-10-11T09:27:57.277Z,53.84
2022-10-11T09:30:21.051Z,56.91
2022-10-11T09:33:00.628Z,58.68
2022-10-11T09:35:36.981Z,59.42
2022-10-11T09:38:22.467Z,59.78
2022-10-11T09:41:26.790Z,60.06
2022-10-11T09:43:55.677Z,60.76
2022-10-11T09:46:40.741Z,60.61
2022-10-11T09:49:16.422Z,60.24
2022-10-11T09:51:56.123Z,60.57
2022-10-11T09:54:52.298Z,60.28
2022-10-11T09:57:36.402Z,59.86
2022-10-11T10:00:28.141Z,59.87
2022-10-11T10:03:01.438Z,60.07
2022-10-11T10:05:38.887Z,59.26
2022-10-11T10:08:10.297Z,58.95
2022-10-11T10:10:55.862Z,58.89
2022-10-11T10:13:52.007Z,59.14
2022-10-11T10:16:34.834Z,59.44
2022-10-11T10:19:23.620Z,59.98
2022-10-11T10:21:56.258Z,59.69
2022-10-11T10:24:39.779Z,58.63
2022-10-11T10:27:11.645Z,58.33
2022-10-11T10:29:41.670Z,58.63
2022-10-11T10:32:23.085Z,58.90
2022-10-11T10:35:15.903Z,59.05
2022-10-11T10:38:08.908Z,58.89
2022-10-11T10:40:50.712Z,58.92
2022-10-11T10:43:24.889Z,59.17
2022-10-11T10:46:29.188Z,59.23
2022-10-11T10:49:59.055Z,58.95
2022-10-11T10:52:59.849Z,59.04
2022-10-11T10:55:43.072Z,58.88
2022-10-11T10:58:50.370Z,59.05
2022-10-11T11:01:32.765Z,58.70
2022-10-11T11:04:28.390Z,57.70
2022-10-11T11:07:32.911Z,58.81
2022-10-11T11:10:18.609Z,59.08
2022-10-11T11:13:05.841Z,59.42
2022-10-11T11:16:04.171Z,59.07
2022-10-11T11:19:05.936Z,58.75
2022-10-11T11:21:44.080Z,58.62
2022-10-11T11:24:35.912Z,58.34
2022-10-11T11:27:33.875Z,58.53
2022-10-11T11:30:12.714Z,57.57
2022-10-11T11:33:14.159Z,57.39
2022-10-11T11:35:53.921Z,56.61
2022-10-11T11:38:49.938Z,56.36
2022-10-11T11:41:28.352Z,56.22
2022-10-11T11:44:20.146Z,56.27
2022-10-11T11:47:03.829Z,55.69
2022-10-11T11:49:38.269Z,55.42
2022-10-11T11:52:15.410Z,55.17
2022-10-11T11:55:06.336Z,54.51
2022-10-11T11:58:41.181Z,54.69
2022-10-11T12:01:31.820Z,54.22
2022-10-11T12:04:21.252Z,54.28
2022-10-11T12:07:17.248Z,54.26
2022-10-11T12:09:53.031Z,53.82
2022-10-11T12:12:38.793Z,53.25
2022-10-11T12:15:10.773Z,53.41
2022-10-11T12:17:57.998Z,53.90
2022-10-11T12:20:39.013Z,52.37
2022-10-11T12:23:29.711Z,51.38
2022-10-11T12:26:28.965Z,51.20
2022-10-11T12:29:20.795Z,51.89
2022-10-11T12:32:37.512Z,51.62
2022-10-11T12:35:32.013Z,51.25
2022-10-11T12:38:31.922Z,50.74
2022-10-11T12:41:09.745Z,50.35
2022-10-11T12:43:51.010Z,50.95
2022-10-11T12:46:29.027Z,49.96
2022-10-11T12:49:15.922Z,50.04
2022-10-11T12:52:42.171Z,50.79
2022-10-11T12:55:39.833Z,50.53
2022-10-11T12:58:48.751Z,50.45
2022-10-11T13:01:24.179Z,50.71
2022-10-11T13:04:13.470Z,50.81
2022-10-11T13:06:54.073Z,50.58
2022-10-11T13:09:36.373Z,50.57
2022-10-11T13:12:20.494Z,49.82
2022-10-11T13:15:07.492Z,49.02
2022-10-11T13:17:39.853Z,48.80
2022-10-11T13:20:26.726Z,48.94
2022-10-11T13:22:57.730Z,49.02
2022-10-11T13:25:31.031Z,49.41
2022-10-11T13:28:01.411Z,49.13
2022-10-11T13:30:34.740Z,48.99
2022-10-11T13:33:14.492Z,49.19
2022-10-11T13:35:43.492Z,49.43
2022-10-11T13:38:35.392Z,50.01
2022-10-11T13:41:11.082Z,49.94
2022-10-11T13:43:41.136Z,50.04
2022-10-11T13:46:24.411Z,50.41
2022-10-11T13:49:23.214Z,50.62
2022-10-11T13:52:03.042Z,50.44
2022-10-11T13:55:24.973Z,50.14
2022-10-11T13:57:55.160Z,50.70
2022-10-11T14:00:39.631Z,50.95
2022-10-11T14:03:14.191Z,50.27
2022-10-11T14:05:57.011Z,50.28
2022-10-11T14:08:50.734Z,50.23
2022-10-11T14:11:36.660Z,49.02
2022-10-11T14:14:34.094Z,48.80
2022-10-11T14:17:46.251Z,48.61
2022-10-11T14:20:33.973Z,48.68
2022-10-11T14:23:06.213Z,48.72
2022-10-11T14:25:35.551Z,48.67
2022-10-11T14:28:06.753Z,48.80
2022-10-11T14:30:36.971Z,48.63
2022-10-11T14:33:08.482Z,48.80
2022-10-11T14:35:44.633Z,48.78
2022-10-11T14:38:18.084Z,48.91
2022-10-11T14:40:47.851Z,49.48
2022-10-11T14:43:18.452Z,49.51
2022-10-11T14:45:48.412Z,49.63
2022-10-11T14:48:42.929Z,49.76
2022-10-11T14:51:14.011Z,49.90
2022-10-11T14:53:46.694Z,50.04
2022-10-11T14:56:21.129Z,50.21
2022-10-11T14:58:52.090Z,50.01
2022-10-11T15:01:20.787Z,50.01
2022-10-11T15:03:49.434Z,49.97
2022-10-11T15:06:54.893Z,50.05
2022-10-11T15:09:26.451Z,50.28
2022-10-11T15:11:57.833Z,50.39
2022-10-11T15:14:28.211Z,50.55
2022-10-11T15:16:57.311Z,50.53
2022-10-11T15:19:27.033Z,50.78
2022-10-11T15:21:56.111Z,50.92
2022-10-11T15:24:25.116Z,51.16
2022-10-11T15:26:53.994Z,51.45
2022-10-11T15:29:24.631Z,51.34
2022-10-11T15:31:54.251Z,51.74
2022-10-11T15:34:24.471Z,51.97
2022-10-11T15:36:53.251Z,52.15
2022-10-11T15:39:32.276Z,52.49
2022-10-11T15:42:01.391Z,52.65
2022-10-11T15:44:30.212Z,52.71
2022-10-11T15:46:58.952Z,53.03
2022-10-11T15:49:27.725Z,53.14
2022-10-11T15:51:56.411Z,53.35
2022-10-11T15:54:25.313Z,53.63
2022-10-11T15:56:54.214Z,53.65
2022-10-11T15:59:23.111Z,53.97
2022-10-11T16:01:51.963Z,54.08
2022-10-11T16:04:20.672Z,54.28
2022-10-11T16:06:49.351Z,54.46
2022-10-11T16:09:18.051Z,54.70
2022-10-11T16:11:46.942Z,55.00
2022-10-11T16:14:15.984Z,54.98
2022-10-11T16:16:44.737Z,55.59
2022-10-11T16:19:13.818Z,55.84
2022-10-11T16:21:44.312Z,55.97
2022-10-11T16:24:13.353Z,56.54
2022-10-11T16:26:42.542Z,57.43
2022-10-11T16:29:11.534Z,57.90
2022-10-11T16:31:40.433Z,58.36
2022-10-11T16:34:09.692Z,59.12
2022-10-11T16:36:43.036Z,59.39
2022-10-11T16:39:18.771Z,60.34
2022-10-11T16:41:48.470Z,60.64
2022-10-11T16:44:21.791Z,61.45
2022-10-11T16:46:51.291Z,70.48
2022-10-11T16:49:25.217Z,69.57
2022-10-11T16:51:57.411Z,57.91
2022-10-11T16:54:33.451Z,52.47
2022-10-11T16:57:02.210Z,53.42
2022-10-11T16:59:31.600Z,55.03
2022-10-11T17:02:00.511Z,56.47
2022-10-11T17:04:29.190Z,58.34
2022-10-11T17:06:58.663Z,59.71
2022-10-11T17:09:27.751Z,60.70
2022-10-11T17:11:56.472Z,61.34
2022-10-11T17:14:25.171Z,61.89
2022-10-11T17:16:53.853Z,69.50
2022-10-11T17:19:22.631Z,69.91
2022-10-11T17:21:51.531Z,58.82
2022-10-11T17:24:20.405Z,52.73
2022-10-11T17:26:49.272Z,53.55
2022-10-11T17:29:19.011Z,55.44
2022-10-11T17:31:49.387Z,57.32
2022-10-11T17:34:18.898Z,58.65
2022-10-11T17:36:47.955Z,59.84
2022-10-11T17:39:20.352Z,61.01
2022-10-11T17:41:49.871Z,68.48
2022-10-11T17:44:19.351Z,67.68
2022-10-11T17:46:49.203Z,58.11
2022-10-11T17:49:18.160Z,52.60
2022-10-11T17:51:47.050Z,53.69
2022-10-11T17:54:16.573Z,56.50
2022-10-11T17:56:46.300Z,59.45
2022-10-11T17:59:22.590Z,60.84
2022-10-11T18:01:51.932Z,68.50
2022-10-11T18:04:23.431Z,68.18
2022-10-11T18:06:55.208Z,58.85
2022-10-11T18:09:26.791Z,51.60
2022-10-11T18:11:57.937Z,53.53
2022-10-11T18:14:28.971Z,55.90
2022-10-11T18:16:58.223Z,58.75
2022-10-11T18:19:27.882Z,60.64
2022-10-11T18:21:57.233Z,61.23
2022-10-11T18:24:26.548Z,70.18
2022-10-11T18:26:57.272Z,68.07
2022-10-11T18:29:26.852Z,58.68
2022-10-11T18:31:56.760Z,53.38
2022-10-11T18:34:26.772Z,55.31
2022-10-11T18:36:56.779Z,58.39
2022-10-11T18:39:25.674Z,60.35
2022-10-11T18:41:54.451Z,61.94
2022-10-11T18:44:23.271Z,69.54
2022-10-11T18:46:52.351Z,67.34
2022-10-11T18:49:21.331Z,56.87
2022-10-11T18:51:50.113Z,52.92
2022-10-11T18:54:21.343Z,54.99
2022-10-11T18:56:50.250Z,57.53
2022-10-11T18:59:20.535Z,59.70
2022-10-11T19:01:52.719Z,61.85
2022-10-11T19:04:22.032Z,61.61
2022-10-11T19:06:51.036Z,69.49
2022-10-11T19:09:23.611Z,68.29
2022-10-11T19:11:56.310Z,58.83
2022-10-11T19:14:29.434Z,53.22
2022-10-11T19:16:58.796Z,55.22
2022-10-11T19:19:30.151Z,57.92
2022-10-11T19:21:59.552Z,60.92
2022-10-11T19:24:30.711Z,62.14
2022-10-11T19:27:02.799Z,70.72
2022-10-11T19:29:32.860Z,67.82
2022-10-11T19:32:03.951Z,58.58
2022-10-11T19:34:33.310Z,54.08
2022-10-11T19:37:04.104Z,56.10
2022-10-11T19:39:33.156Z,58.46
2022-10-11T19:42:02.068Z,60.45
2022-10-11T19:44:34.441Z,61.67
2022-10-11T19:47:06.576Z,68.19
2022-10-11T19:49:36.104Z,66.74
2022-10-11T19:52:05.184Z,57.38
2022-10-11T19:54:33.871Z,52.85
2022-10-11T19:57:02.603Z,54.76
2022-10-11T19:59:31.473Z,57.86
2022-10-11T20:02:00.433Z,60.04
2022-10-11T20:07:18.292Z,70.11
2022-10-11T20:09:47.092Z,65.28
2022-10-11T20:12:16.180Z,54.83
2022-10-11T20:14:45.050Z,54.11
2022-10-11T20:17:14.174Z,57.25
2022-10-11T20:19:42.865Z,60.00
2022-10-11T20:22:11.651Z,61.74
2022-10-11T20:24:40.230Z,69.32
2022-10-11T20:27:09.153Z,66.83
2022-10-11T20:29:38.012Z,58.56
2022-10-11T20:32:06.932Z,53.73
2022-10-11T20:34:39.901Z,55.46
2022-10-11T20:37:08.886Z,58.15
2022-10-11T20:39:37.763Z,60.17
2022-10-11T20:42:06.711Z,61.54
2022-10-11T20:44:35.550Z,68.84
2022-10-11T20:47:04.468Z,67.00
2022-10-11T20:49:33.512Z,57.03
2022-10-11T20:52:02.531Z,52.76
2022-10-11T20:54:31.421Z,56.95
2022-10-11T20:57:00.833Z,61.17
2022-10-11T20:59:29.410Z,68.05
2022-10-11T21:01:58.215Z,65.12
2022-10-11T21:04:27.184Z,56.63
2022-10-11T21:06:55.990Z,54.75
2022-10-11T21:09:24.990Z,57.24
2022-10-11T21:11:53.771Z,59.95
2022-10-11T21:14:23.102Z,61.33
2022-10-11T21:16:52.631Z,66.97
2022-10-11T21:19:21.272Z,67.04
2022-10-11T21:21:53.645Z,57.57
2022-10-11T21:24:23.091Z,53.26
2022-10-11T21:26:52.731Z,56.01
2022-10-11T21:29:22.774Z,58.74
2022-10-11T21:31:51.543Z,61.45
2022-10-11T21:34:20.251Z,68.99
2022-10-11T21:36:48.931Z,68.52
2022-10-11T21:39:17.711Z,60.75
2022-10-11T21:41:46.711Z,54.50
2022-10-11T21:44:16.031Z,55.86
2022-10-11T21:49:33.450Z,61.17
2022-10-11T21:52:03.594Z,68.01
2022-10-11T21:54:32.554Z,66.45
2022-10-11T21:57:01.450Z,58.14
2022-10-11T21:59:30.753Z,53.70
2022-10-11T22:02:01.843Z,56.01
2022-10-11T22:04:31.132Z,58.97
2022-10-11T22:06:59.920Z,60.77
2022-10-11T22:09:30.331Z,67.11
2022-10-11T22:12:04.680Z,66.89
2022-10-11T22:14:33.815Z,58.26
2022-10-11T22:17:02.563Z,54.13
2022-10-11T22:19:31.351Z,56.77
2022-10-11T22:22:00.091Z,59.46
2022-10-11T22:24:29.811Z,61.62
2022-10-11T22:26:58.751Z,68.53
2022-10-11T22:29:33.190Z,65.72
2022-10-11T22:32:03.500Z,58.05
2022-10-11T22:34:34.110Z,54.10
2022-10-11T22:37:02.591Z,56.11
2022-10-11T22:39:31.621Z,58.92
2022-10-11T22:42:00.289Z,61.04
2022-10-11T22:44:28.960Z,62.24
2022-10-11T22:46:57.532Z,69.78
2022-10-11T22:49:26.050Z,67.59
2022-10-11T22:51:54.632Z,60.91
2022-10-11T22:54:23.322Z,53.65
2022-10-11T22:56:52.494Z,54.83
2022-10-11T22:59:21.111Z,57.54
2022-10-11T23:01:49.731Z,60.22
2022-10-11T23:04:18.652Z,63.87
2022-10-11T23:06:47.553Z,68.23
2022-10-11T23:09:16.740Z,62.31
2022-10-11T23:11:45.370Z,54.06
2022-10-11T23:14:14.013Z,54.32
2022-10-11T23:16:42.541Z,57.35
2022-10-11T23:19:11.051Z,60.33
2022-10-11T23:21:39.634Z,67.23
2022-10-11T23:24:08.661Z,65.72
2022-10-11T23:26:37.655Z,56.68
2022-10-11T23:29:06.591Z,53.45
2022-10-11T23:31:35.141Z,56.38
2022-10-11T23:34:03.701Z,59.97
2022-10-11T23:36:37.751Z,61.86
2022-10-11T23:39:14.012Z,69.09
2022-10-11T23:45:37.310Z,53.99
2022-10-11T23:48:37.641Z,55.40
2022-10-11T23:51:50.883Z,58.86
2022-10-11T23:54:27.890Z,62.53
2022-10-11T23:58:39.851Z,70.70
